Terminal Aerodrome Forecast
Issued by NWS

Home | Current Version | Previous Version | Text Only | Print | Product List | Glossary On
Versions: 1 2 3 4 5 6 7 8 9 10 11 12 13 14 15
000
FTUS42 TJSJ 010500
TAFJBQ
TAF
TJBQ 010530Z 0106/0206 14004KT P6SM FEW030
     FM011430 06009KT P6SM VCSH FEW025
     FM012200 13003KT P6SM FEW025
      AMD NOT SKED TIL 011100=

USA.gov is the U.S. government's official web portal to all federal, state and local government web resources and services.